Overview Statistics Trail Chart Weather Telemetry Raw packets
 

This is the latest recevied weather packets stored in our database for station/object HA9OZD-18. If no packets are shown the sender has not sent any weather packets the latest 10 day(s).

<< 7 8 9 10 11 12 >>
Time Temp. Humidity Pressure Rain* Wind** Luminosity Snow
1788014727 21.67° C 45% 1015.8 hPa - - - -
1788011134 21.11° C 49% 1016.1 hPa - - - -
1788011126 21.11° C 49% 1016.1 hPa - - - -
1788007526 21.11° C 51% 1016.3 hPa - - - -
1788003926 22.22° C 50% 1016.1 hPa - - - -
1788000326 21.67° C 54% 1016.2 hPa - - - -
1787996725 21.11° C 58% 1015.9 hPa - - - -
1787993125 19.44° C 64% 1015.8 hPa - - - -
1787989525 17.78° C 77% 1015.1 hPa - - - -
1787985925 15.56° C 89% 1014.9 hPa - - - -
1787982324 14.44° C 94% 1014.3 hPa - - - -
1787978724 13.89° C 95% 1015 hPa - - - -
1787975124 14.44° C 86% 1014.8 hPa - - - -
1787971523 15° C 83% 1014.3 hPa - - - -
1787967923 16.11° C 72% 1015.1 hPa - - - -
1787964323 16.11° C 65% 1015.4 hPa - - - -
1787960723 17.22° C 49% 1016 hPa - - - -
1787957122 17.22° C 42% 1016.2 hPa - - - -
1787953522 17.22° C 39% 1016.3 hPa - - - -
1787949922 17.22° C 37% 1016.9 hPa - - - -
1787946368 17.78° C 35% 1017.3 hPa - - - -
1787946321 17.78° C 35% 1017.3 hPa - - - -
1787942734 17.78° C 35% 1017.5 hPa - - - -
1787939134 18.33° C 34% 1017.5 hPa - - - -
1787935534 19.44° C 33% 1017.4 hPa - - - -

* Rain since midnight (hover to see other rain measurements)
** Current wind speed in m/s (hover to see current wind gust speed)